createdAt,value
2023-05-22T00:01:30.199Z,101345.44
2023-05-22T00:03:31.898Z,101344.91
2023-05-22T00:05:33.508Z,101359.59
2023-05-22T00:07:35.176Z,101354.00
2023-05-22T00:09:36.610Z,101360.16
2023-05-22T00:11:38.134Z,101363.13
2023-05-22T00:13:39.795Z,101327.16
2023-05-22T00:15:41.244Z,101356.00
2023-05-22T00:17:42.728Z,101361.44
2023-05-22T00:19:44.296Z,101359.38
2023-05-22T00:21:46.168Z,101342.31
2023-05-22T00:23:47.613Z,101352.94
2023-05-22T00:25:49.155Z,101348.72
2023-05-22T00:27:50.854Z,101365.25
2023-05-22T00:29:52.293Z,101360.47
2023-05-22T00:31:53.850Z,101370.53
2023-05-22T00:33:55.441Z,101351.09
2023-05-22T00:35:56.933Z,101362.44
2023-05-22T00:37:58.452Z,101333.03
2023-05-22T00:40:00.181Z,101364.09
2023-05-22T00:42:01.800Z,101361.88
2023-05-22T00:44:03.937Z,101361.75
2023-05-22T00:46:05.595Z,101337.78
2023-05-22T00:48:07.053Z,101365.91
2023-05-22T00:50:10.626Z,101348.28
2023-05-22T00:52:13.100Z,101368.88
2023-05-22T00:54:15.066Z,101343.69
2023-05-22T00:56:17.132Z,101367.91
2023-05-22T00:58:18.791Z,101342.69
2023-05-22T01:00:20.764Z,101366.59
2023-05-22T01:02:23.432Z,101352.75
2023-05-22T01:04:25.311Z,101369.13
2023-05-22T01:06:27.261Z,101365.63
2023-05-22T01:08:29.199Z,101364.50
2023-05-22T01:10:32.051Z,101352.59
2023-05-22T01:12:48.412Z,101368.28
2023-05-22T01:15:00.784Z,101362.69
2023-05-22T01:17:11.807Z,101361.00
2023-05-22T01:19:44.283Z,101367.59
2023-05-22T01:22:17.834Z,101368.94
2023-05-22T01:24:51.606Z,101370.22
2023-05-22T01:27:30.538Z,101364.03
2023-05-22T01:29:46.616Z,101359.16
2023-05-22T01:31:50.609Z,101370.78
2023-05-22T01:33:56.012Z,101367.53
2023-05-22T01:36:01.400Z,101350.59
2023-05-22T01:38:04.069Z,101330.31
2023-05-22T01:40:07.103Z,101349.88
2023-05-22T01:42:08.586Z,101370.72
2023-05-22T01:44:10.109Z,101360.22
2023-05-22T01:46:12.034Z,101377.84
2023-05-22T01:48:13.509Z,101362.63
2023-05-22T01:50:15.165Z,101363.28
2023-05-22T01:53:07.539Z,101364.81
2023-05-22T01:55:13.792Z,101360.63
2023-05-22T01:57:24.142Z,101360.50
2023-05-22T01:59:31.322Z,101355.28
2023-05-22T02:01:36.655Z,101358.53
2023-05-22T02:03:39.664Z,101362.72
2023-05-22T02:05:43.171Z,101352.72
2023-05-22T02:07:46.164Z,101357.25
2023-05-22T02:09:50.727Z,101347.41
2023-05-22T02:11:52.386Z,101348.22
2023-05-22T02:13:54.056Z,101351.63
2023-05-22T02:15:58.305Z,101347.03
2023-05-22T02:18:00.698Z,101343.66
2023-05-22T02:20:02.303Z,101340.75
2023-05-22T02:22:04.165Z,151724.72
2023-05-22T02:24:06.543Z,151739.88
2023-05-22T02:26:08.019Z,151744.94
2023-05-22T02:28:09.477Z,151722.19
2023-05-22T02:30:12.467Z,151675.41
2023-05-22T02:32:14.113Z,151722.19
2023-05-22T02:34:15.754Z,151718.38
2023-05-22T02:36:17.431Z,151718.38
2023-05-22T02:38:18.939Z,151715.84
2023-05-22T02:40:20.404Z,151714.59
2023-05-22T02:42:22.618Z,151712.03
2023-05-22T02:44:24.049Z,151683.00
2023-05-22T02:46:25.514Z,151684.25
2023-05-22T02:48:27.244Z,151641.28
2023-05-22T02:50:28.779Z,151650.09
2023-05-22T02:52:30.277Z,151693.09
2023-05-22T02:54:32.015Z,151699.41
2023-05-22T02:56:33.468Z,151705.72
2023-05-22T02:58:34.886Z,151717.13
2023-05-22T03:00:36.505Z,151741.16
2023-05-22T03:02:38.686Z,151771.47
2023-05-22T03:04:40.285Z,151795.50
2023-05-22T03:06:42.053Z,151817.00
2023-05-22T03:08:43.586Z,151817.00
2023-05-22T03:10:45.050Z,151838.50
2023-05-22T03:12:46.885Z,151828.34
2023-05-22T03:14:48.374Z,151875.16
2023-05-22T03:16:49.951Z,151889.13
2023-05-22T03:18:54.959Z,151827.13
2023-05-22T03:20:56.388Z,151887.84
2023-05-22T03:22:57.879Z,151901.75
2023-05-22T03:24:59.679Z,151925.78
2023-05-22T03:27:01.130Z,151973.88
2023-05-22T03:29:02.708Z,151995.41
2023-05-22T03:31:04.484Z,151990.38
2023-05-22T03:33:05.991Z,152006.81
2023-05-22T03:35:07.910Z,152038.41
2023-05-22T03:37:11.490Z,152078.91
2023-05-22T03:39:12.959Z,152114.41
2023-05-22T03:41:14.478Z,152140.94
2023-05-22T03:43:16.054Z,152156.16
2023-05-22T03:45:17.586Z,152189.06
2023-05-22T03:47:19.015Z,152227.03
2023-05-22T03:49:20.616Z,152254.91
2023-05-22T03:51:22.067Z,152285.28
2023-05-22T03:53:23.506Z,152294.22
2023-05-22T03:55:25.170Z,152334.75
2023-05-22T03:57:26.625Z,152329.66
2023-05-22T03:59:28.039Z,152327.13
2023-05-22T04:01:29.671Z,152344.84
2023-05-22T04:03:31.136Z,152344.84
2023-05-22T04:05:32.628Z,152356.28
2023-05-22T04:07:34.245Z,152381.63
2023-05-22T04:09:35.920Z,152386.66
2023-05-22T04:11:40.477Z,152400.63
2023-05-22T04:13:42.982Z,152422.16
2023-05-22T04:15:44.610Z,152457.63
2023-05-22T04:17:46.108Z,152533.63
2023-05-22T04:19:47.674Z,152575.44
2023-05-22T04:21:49.200Z,152599.53
2023-05-22T04:23:50.686Z,152655.34
2023-05-22T04:25:52.350Z,152763.13
2023-05-22T04:27:54.200Z,152830.38
2023-05-22T04:29:55.699Z,152911.59
2023-05-22T04:32:03.120Z,152949.66
2023-05-22T04:34:07.328Z,153024.50
2023-05-22T04:36:10.985Z,153091.78
2023-05-22T04:38:16.828Z,153159.06
2023-05-22T04:40:18.438Z,153293.69
2023-05-22T04:42:19.888Z,153405.47
2023-05-22T04:44:21.528Z,153402.91
2023-05-22T04:46:23.107Z,153390.25
2023-05-22T04:48:24.614Z,153526.22
2023-05-22T04:50:26.339Z,153676.25
2023-05-22T04:52:28.017Z,153823.75
2023-05-22T04:54:29.468Z,153912.81
2023-05-22T04:56:36.708Z,153982.78
2023-05-22T04:58:39.065Z,154004.44
2023-05-22T05:00:40.856Z,154138.13
2023-05-22T05:02:43.117Z,154178.84
2023-05-22T05:04:44.782Z,154259.03
2023-05-22T05:06:46.217Z,154368.56
2023-05-22T05:08:48.394Z,154274.31
2023-05-22T05:10:50.052Z,154307.44
2023-05-22T05:12:51.490Z,154336.75
2023-05-22T05:14:53.217Z,154227.19
2023-05-22T05:16:54.979Z,154238.69
2023-05-22T05:18:56.509Z,154392.78
2023-05-22T05:20:58.144Z,154400.44
2023-05-22T05:22:59.662Z,154590.31
2023-05-22T05:25:01.228Z,154689.72
2023-05-22T05:27:02.872Z,154585.19
2023-05-22T05:29:04.389Z,154580.09
2023-05-22T05:31:05.907Z,154673.16
2023-05-22T05:33:07.520Z,154817.25
2023-05-22T05:35:09.368Z,154838.91
2023-05-22T05:37:10.819Z,154836.38
2023-05-22T05:39:12.357Z,154915.47
2023-05-22T05:41:13.822Z,154957.56
2023-05-22T05:43:15.327Z,154994.53
2023-05-22T05:45:16.961Z,154790.47
2023-05-22T05:47:18.475Z,154831.25
2023-05-22T05:49:20.226Z,154832.53
2023-05-22T05:51:21.739Z,154940.97
2023-05-22T05:53:23.219Z,154949.88
2023-05-22T05:55:24.732Z,154832.53
2023-05-22T05:57:27.048Z,154847.81
2023-05-22T05:59:28.711Z,154882.28
2023-05-22T06:01:30.423Z,154956.28
2023-05-22T06:03:32.205Z,155076.22
2023-05-22T06:05:33.930Z,155129.84
2023-05-22T06:07:35.385Z,155115.75
2023-05-22T06:09:37.094Z,155133.63
2023-05-22T06:11:38.643Z,155254.94
2023-05-22T06:13:40.087Z,155231.91
2023-05-22T06:15:41.804Z,155208.94
2023-05-22T06:17:43.398Z,155326.41
2023-05-22T06:19:44.896Z,155390.22
2023-05-22T06:21:46.492Z,155332.78
2023-05-22T06:23:48.852Z,155396.63
2023-05-22T06:25:50.378Z,155511.56
2023-05-22T06:27:52.380Z,155561.41
2023-05-22T06:29:54.253Z,155686.66
2023-05-22T06:31:55.737Z,155719.84
2023-05-22T06:33:57.598Z,155705.81
2023-05-22T06:35:59.163Z,155769.75
2023-05-22T06:38:00.608Z,155764.63
2023-05-22T06:40:02.648Z,155754.44
2023-05-22T06:42:04.282Z,155777.38
2023-05-22T06:44:05.756Z,155611.25
2023-05-22T06:46:07.505Z,155772.31
2023-05-22T06:48:09.323Z,155668.75
2023-05-22T06:50:10.946Z,155675.13
2023-05-22T06:52:12.816Z,155622.75
2023-05-22T06:54:14.450Z,155714.72
2023-05-22T06:56:15.926Z,155765.91
2023-05-22T06:58:17.429Z,155758.22
2023-05-22T07:00:21.650Z,155627.88
2023-05-22T07:02:23.485Z,155574.16
2023-05-22T07:04:25.162Z,155676.41
2023-05-22T07:06:27.157Z,155892.44
2023-05-22T07:08:30.445Z,155864.28
2023-05-22T07:10:32.304Z,155737.72
2023-05-22T07:12:33.924Z,155594.66
2023-05-22T07:14:35.381Z,155643.19
2023-05-22T07:16:36.955Z,155759.50
2023-05-22T07:18:38.608Z,155746.69
2023-05-22T07:20:40.360Z,155661.09
2023-05-22T07:22:42.084Z,155928.25
2023-05-22T07:24:43.874Z,155950.00
2023-05-22T07:26:45.414Z,155907.81
2023-05-22T07:28:47.147Z,156048.44
2023-05-22T07:30:48.786Z,155944.88
2023-05-22T07:32:50.277Z,155893.72
2023-05-22T07:34:51.908Z,155817.03
2023-05-22T07:36:53.407Z,155914.22
2023-05-22T07:38:54.953Z,155859.22
2023-05-22T07:40:56.557Z,155953.84
2023-05-22T07:42:58.161Z,155974.28
2023-05-22T07:45:00.328Z,156003.72
2023-05-22T07:47:01.960Z,155864.28
2023-05-22T07:49:03.622Z,155838.78
2023-05-22T07:51:05.179Z,155910.38
2023-05-22T07:53:06.858Z,156088.16
2023-05-22T07:55:08.918Z,156178.94
2023-05-22T07:57:10.456Z,156074.06
2023-05-22T07:59:12.962Z,156056.13
2023-05-22T08:01:14.725Z,155921.91
2023-05-22T08:03:17.511Z,156112.41
2023-05-22T08:05:19.718Z,156146.97
2023-05-22T08:07:21.429Z,156051.00
2023-05-22T08:09:22.989Z,156031.81
2023-05-22T08:11:24.554Z,155925.69
2023-05-22T08:13:26.291Z,156067.66
2023-05-22T08:15:28.003Z,156051.00
2023-05-22T08:17:29.761Z,155997.31
2023-05-22T08:19:31.440Z,156024.19
2023-05-22T08:21:32.970Z,155969.16
2023-05-22T08:23:34.675Z,155921.91
2023-05-22T08:25:36.775Z,155841.28
2023-05-22T08:27:38.309Z,155956.41
2023-05-22T08:29:39.964Z,155857.94
2023-05-22T08:31:41.487Z,155776.16
2023-05-22T08:33:43.053Z,155749.31
2023-05-22T08:35:44.648Z,155753.16
2023-05-22T08:37:46.387Z,155631.69
2023-05-22T08:39:49.180Z,155848.97
2023-05-22T08:41:51.370Z,155846.41
2023-05-22T08:43:52.949Z,155833.66
2023-05-22T08:46:02.182Z,155817.03
2023-05-22T08:48:05.471Z,155728.81
2023-05-22T08:50:07.377Z,155823.41
2023-05-22T08:52:21.617Z,155801.66
2023-05-22T08:54:26.569Z,155833.66
2023-05-22T08:56:29.666Z,155515.41
2023-05-22T08:58:33.219Z,155557.56
2023-05-22T09:00:34.769Z,155627.88
2023-05-22T09:02:38.247Z,155676.41
2023-05-22T09:04:43.058Z,155709.66
2023-05-22T09:06:47.560Z,155753.16
2023-05-22T09:08:51.263Z,155685.38
2023-05-22T09:10:53.220Z,155684.09
2023-05-22T09:13:01.496Z,155811.91
2023-05-22T09:15:10.944Z,155795.31
2023-05-22T09:17:15.486Z,155713.50
2023-05-22T09:19:17.577Z,155709.66
2023-05-22T09:21:29.703Z,155727.53
2023-05-22T09:23:31.948Z,155682.81
2023-05-22T09:25:33.549Z,155701.97
2023-05-22T09:27:35.233Z,155718.56
2023-05-22T09:29:53.587Z,155749.31
2023-05-22T09:31:56.030Z,155813.19
2023-05-22T09:33:58.081Z,155774.88
2023-05-22T09:35:59.736Z,155817.03
2023-05-22T09:38:01.493Z,155667.50
2023-05-22T09:40:06.811Z,155722.41
2023-05-22T09:42:09.682Z,155783.78
2023-05-22T09:44:14.219Z,155719.84
2023-05-22T09:46:16.258Z,155809.34
2023-05-22T09:48:17.721Z,155873.25
2023-05-22T09:50:19.873Z,155848.97
2023-05-22T09:52:22.749Z,155790.19
2023-05-22T09:54:25.549Z,155837.50
2023-05-22T09:56:38.450Z,155794.03
2023-05-22T09:58:45.252Z,155751.88
2023-05-22T10:00:48.784Z,155645.75
2023-05-22T10:02:57.949Z,155790.19
2023-05-22T10:05:00.694Z,155823.41
2023-05-22T10:07:03.104Z,155779.94
2023-05-22T10:09:13.266Z,155771.03
2023-05-22T10:11:15.275Z,155739.00
2023-05-22T10:13:17.115Z,155693.03
2023-05-22T10:15:19.310Z,155710.94
2023-05-22T10:17:21.371Z,155583.13
2023-05-22T10:19:23.014Z,155604.88
2023-05-22T10:21:24.696Z,155525.66
2023-05-22T10:23:28.256Z,155556.28
2023-05-22T10:25:29.946Z,155602.31
2023-05-22T10:27:31.812Z,155634.25
2023-05-22T10:29:46.568Z,155717.28
2023-05-22T10:31:58.394Z,155758.22
2023-05-22T10:34:04.861Z,155756.94
2023-05-22T10:36:33.627Z,155866.84
2023-05-22T10:39:02.935Z,155843.84
2023-05-22T10:41:05.075Z,155791.47
2023-05-22T10:43:06.626Z,155549.88
2023-05-22T10:45:09.001Z,155574.16
2023-05-22T10:47:10.988Z,155575.44
2023-05-22T10:49:20.964Z,155658.53
2023-05-22T10:51:23.134Z,155728.81
2023-05-22T10:53:26.203Z,155645.75
2023-05-22T10:55:28.005Z,155686.66
2023-05-22T10:57:32.690Z,155580.56
2023-05-22T10:59:34.705Z,155579.28
2023-05-22T11:01:36.431Z,155549.88
2023-05-22T11:03:57.464Z,155671.31
2023-05-22T11:05:59.190Z,155693.03
2023-05-22T11:08:11.546Z,155682.81
2023-05-22T11:10:13.379Z,155649.59
2023-05-22T11:12:27.546Z,155703.25
2023-05-22T11:14:29.307Z,155686.66
2023-05-22T11:16:34.189Z,155728.81
2023-05-22T11:18:36.010Z,155762.06
2023-05-22T11:20:37.887Z,155699.41
2023-05-22T11:22:43.953Z,155565.25
2023-05-22T11:24:47.077Z,155647.03
2023-05-22T11:27:01.821Z,155648.31
2023-05-22T11:29:07.553Z,155615.09
2023-05-22T11:31:09.855Z,155566.53
2023-05-22T11:33:11.663Z,155500.09
2023-05-22T11:35:20.327Z,155583.13
2023-05-22T11:37:22.784Z,155535.84
2023-05-22T11:39:24.591Z,155621.50
2023-05-22T11:41:36.390Z,155625.31
2023-05-22T11:43:38.097Z,155546.09
2023-05-22T11:45:39.884Z,155588.28
2023-05-22T11:47:41.964Z,155616.38
2023-05-22T11:49:44.064Z,155707.09
2023-05-22T11:51:48.646Z,155759.50
2023-05-22T11:53:50.096Z,155842.56
2023-05-22T11:55:51.736Z,155790.19
2023-05-22T11:57:55.299Z,155716.00
2023-05-22T11:59:56.860Z,155635.53
2023-05-22T12:01:58.418Z,155649.59
2023-05-22T12:04:00.002Z,155544.81
2023-05-22T12:06:01.887Z,155566.53
2023-05-22T12:08:06.620Z,155570.31
2023-05-22T12:10:08.328Z,155565.25
2023-05-22T12:12:09.984Z,155572.88
2023-05-22T12:14:12.061Z,155571.59
2023-05-22T12:16:20.916Z,155663.66
2023-05-22T12:18:22.549Z,155617.66
2023-05-22T12:20:29.674Z,155636.81
2023-05-22T12:22:31.303Z,155563.97
2023-05-22T12:24:53.018Z,155641.91
2023-05-22T12:26:55.307Z,155673.84
2023-05-22T12:28:58.686Z,155687.94
2023-05-22T12:31:00.477Z,155745.41
2023-05-22T12:33:02.070Z,155724.97
2023-05-22T12:35:03.713Z,155797.81
2023-05-22T12:37:05.261Z,155745.41
2023-05-22T12:39:08.394Z,155772.31
2023-05-22T12:41:09.894Z,155727.53
2023-05-22T12:43:11.433Z,155693.03
2023-05-22T12:45:13.367Z,155825.97
2023-05-22T12:47:14.837Z,155735.16
2023-05-22T12:49:16.272Z,155735.16
2023-05-22T12:51:19.978Z,155708.38
2023-05-22T12:53:22.190Z,155746.69
2023-05-22T12:55:23.705Z,155704.53
2023-05-22T12:57:25.326Z,155721.13
2023-05-22T12:59:26.934Z,155723.69
2023-05-22T13:01:28.429Z,155664.94
2023-05-22T13:03:30.192Z,155574.16
2023-05-22T13:05:31.695Z,155447.72
2023-05-22T13:07:33.209Z,155404.25
2023-05-22T13:09:34.956Z,155362.13
2023-05-22T13:11:37.046Z,155297.06
2023-05-22T13:13:38.639Z,155423.47
2023-05-22T13:15:40.454Z,155428.56
2023-05-22T13:17:42.111Z,155488.59
2023-05-22T13:19:43.647Z,155650.88
2023-05-22T13:21:45.268Z,155682.81
2023-05-22T13:23:46.707Z,155733.94
2023-05-22T13:25:49.112Z,155675.13
2023-05-22T13:27:50.916Z,155607.44
2023-05-22T13:29:52.363Z,155616.38
2023-05-22T13:31:53.820Z,155592.09
2023-05-22T13:33:55.686Z,155647.03
2023-05-22T13:35:57.232Z,155616.38
2023-05-22T13:37:58.737Z,155723.69
2023-05-22T13:40:00.387Z,155854.09
2023-05-22T13:42:02.168Z,155787.63
2023-05-22T13:44:03.635Z,155763.34
2023-05-22T13:46:05.440Z,155854.09
2023-05-22T13:48:06.930Z,155730.09
2023-05-22T13:50:08.862Z,155647.03
2023-05-22T13:52:10.705Z,155618.94
2023-05-22T13:54:12.256Z,155639.38
2023-05-22T13:56:13.737Z,155640.66
2023-05-22T13:58:15.658Z,155678.97
2023-05-22T14:00:17.718Z,155636.81
2023-05-22T14:02:19.202Z,155615.09
2023-05-22T14:04:21.058Z,155560.13
2023-05-22T14:06:22.686Z,155562.69
2023-05-22T14:08:24.587Z,155608.72
2023-05-22T14:10:26.355Z,155643.19
2023-05-22T14:12:27.844Z,155626.59
2023-05-22T14:14:29.324Z,155583.13
2023-05-22T14:16:30.982Z,155584.41
2023-05-22T14:18:32.499Z,155589.56
2023-05-22T14:20:34.000Z,155528.16
2023-05-22T14:22:47.990Z,155547.38
2023-05-22T14:24:57.293Z,155544.81
2023-05-22T14:26:58.741Z,155449.00
2023-05-22T14:29:00.418Z,155521.81
2023-05-22T14:31:01.919Z,155440.09
2023-05-22T14:33:03.508Z,155514.13
2023-05-22T14:35:05.678Z,155548.59
2023-05-22T14:37:07.131Z,155612.53
2023-05-22T14:39:08.751Z,155505.22
2023-05-22T14:41:10.775Z,155529.44
2023-05-22T14:43:12.357Z,155580.56
2023-05-22T14:45:13.879Z,155569.03
2023-05-22T14:47:15.506Z,155455.41
2023-05-22T14:49:17.073Z,155475.84
2023-05-22T14:51:20.412Z,155548.59
2023-05-22T14:53:22.520Z,155597.22
2023-05-22T14:55:24.051Z,155552.44
2023-05-22T14:57:25.487Z,155419.66
2023-05-22T14:59:27.219Z,155383.84
2023-05-22T15:01:28.695Z,155496.28
2023-05-22T15:03:30.506Z,155492.44
2023-05-22T15:05:32.171Z,155538.41
2023-05-22T15:07:43.738Z,155567.81
2023-05-22T15:09:45.800Z,155505.22
2023-05-22T15:11:47.461Z,155542.25
2023-05-22T15:13:49.042Z,155556.28
2023-05-22T15:15:50.537Z,155575.44
2023-05-22T15:17:52.249Z,155560.13
2023-05-22T15:19:53.739Z,155570.31
2023-05-22T15:21:56.055Z,155532.00
2023-05-22T15:23:58.727Z,155581.84
2023-05-22T15:26:00.156Z,155525.66
2023-05-22T15:28:01.878Z,155470.72
2023-05-22T15:30:04.636Z,155514.13
2023-05-22T15:32:06.525Z,155498.81
2023-05-22T15:34:08.071Z,155496.28
2023-05-22T15:36:09.572Z,155422.22
2023-05-22T15:38:11.107Z,155428.56
2023-05-22T15:40:12.724Z,155438.81
2023-05-22T15:42:14.155Z,155320.00
2023-05-22T15:44:15.630Z,155325.13
2023-05-22T15:46:17.121Z,155322.56
2023-05-22T15:48:18.718Z,155283.00
2023-05-22T15:50:20.162Z,155283.00
2023-05-22T15:52:21.591Z,155351.94
2023-05-22T15:54:23.518Z,155327.66
2023-05-22T15:56:24.960Z,155314.94
2023-05-22T15:58:26.461Z,155355.78
2023-05-22T16:00:28.616Z,155365.97
2023-05-22T16:02:30.341Z,155408.09
2023-05-22T16:04:31.873Z,155365.97
2023-05-22T16:06:33.546Z,155317.47
2023-05-22T16:08:34.973Z,155348.09
2023-05-22T16:10:36.999Z,155235.75
2023-05-22T16:12:41.990Z,155305.97
2023-05-22T16:14:43.436Z,155378.75
2023-05-22T16:16:44.894Z,155360.91
2023-05-22T16:18:46.721Z,155341.69
2023-05-22T16:20:48.185Z,155342.97
2023-05-22T16:22:49.650Z,155368.53
2023-05-22T16:24:51.298Z,155374.91
2023-05-22T16:26:52.757Z,155349.38
2023-05-22T16:28:54.204Z,155413.22
2023-05-22T16:30:55.934Z,155369.81
2023-05-22T16:32:57.478Z,155392.78
2023-05-22T16:34:59.016Z,155288.09
2023-05-22T16:37:00.819Z,155345.53
2023-05-22T16:39:02.396Z,155271.53
2023-05-22T16:41:03.891Z,155283.00
2023-05-22T16:43:05.559Z,155247.25
2023-05-22T16:45:07.500Z,155252.38
2023-05-22T16:47:09.121Z,155281.72
2023-05-22T16:49:11.015Z,155240.81
2023-05-22T16:51:12.509Z,155242.09
2023-05-22T16:53:14.126Z,155272.81
2023-05-22T16:55:15.739Z,155279.16
2023-05-22T16:57:17.201Z,155194.91
2023-05-22T16:59:18.704Z,155244.66
2023-05-22T17:01:20.574Z,155222.97
2023-05-22T17:03:22.188Z,155252.38
2023-05-22T17:05:23.790Z,155145.13
2023-05-22T17:07:25.528Z,155145.13
2023-05-22T17:09:27.021Z,155132.38
2023-05-22T17:11:28.445Z,155145.13
2023-05-22T17:13:30.049Z,155137.47
2023-05-22T17:15:31.585Z,155110.69
2023-05-22T17:17:33.063Z,155129.84
2023-05-22T17:19:35.224Z,155062.16
2023-05-22T17:21:36.766Z,155013.66
2023-05-22T17:23:38.414Z,155023.88
2023-05-22T17:25:40.236Z,155032.78
2023-05-22T17:27:41.873Z,155032.78
2023-05-22T17:29:43.319Z,154993.25
2023-05-22T17:31:45.027Z,154943.53
2023-05-22T17:33:46.502Z,154976.69
2023-05-22T17:35:48.055Z,154990.69
2023-05-22T17:37:49.892Z,154991.97
2023-05-22T17:39:51.460Z,155008.53
2023-05-22T17:41:52.956Z,154929.47
2023-05-22T17:43:54.846Z,154935.88
2023-05-22T17:45:56.412Z,154916.75
2023-05-22T17:47:57.924Z,154877.16
2023-05-22T17:49:59.676Z,154849.09
2023-05-22T17:52:01.128Z,154860.59
2023-05-22T17:54:02.650Z,154856.75
2023-05-22T17:56:04.746Z,154828.69
2023-05-22T17:58:06.200Z,154799.41
2023-05-22T18:00:08.291Z,154728.00
2023-05-22T18:02:10.008Z,154742.00
2023-05-22T18:04:11.488Z,154699.94
2023-05-22T18:06:12.999Z,154697.38
2023-05-22T18:08:14.775Z,154676.94
2023-05-22T18:10:16.238Z,154647.66
2023-05-22T18:12:31.198Z,154625.97
2023-05-22T18:14:33.599Z,154569.94
2023-05-22T18:16:35.154Z,154562.25
2023-05-22T18:18:36.654Z,154516.38
2023-05-22T18:20:38.768Z,154467.97
2023-05-22T18:22:40.423Z,154434.81
2023-05-22T18:24:41.888Z,154400.44
2023-05-22T18:26:43.597Z,154391.50
2023-05-22T18:28:45.029Z,154362.25
2023-05-22T18:30:46.473Z,154307.44
2023-05-22T18:32:48.103Z,154252.66
2023-05-22T18:34:50.164Z,154237.41
2023-05-22T18:36:52.851Z,154175.03
2023-05-22T18:38:54.723Z,154159.72
2023-05-22T18:40:56.170Z,154162.25
2023-05-22T18:42:57.624Z,154135.56
2023-05-22T18:44:59.339Z,154097.34
2023-05-22T18:47:00.790Z,154032.44
2023-05-22T18:49:03.747Z,153993.00
2023-05-22T18:51:05.611Z,153966.25
2023-05-22T18:53:07.228Z,153945.91
2023-05-22T18:55:09.239Z,153877.16
2023-05-22T18:57:11.059Z,153874.59
2023-05-22T18:59:12.529Z,153849.16
2023-05-22T19:01:13.988Z,153836.47
2023-05-22T19:03:15.816Z,153795.75
2023-05-22T19:05:17.264Z,153775.41
2023-05-22T19:07:18.718Z,153757.63
2023-05-22T19:09:20.566Z,153706.75
2023-05-22T19:11:22.005Z,153718.22
2023-05-22T19:13:23.466Z,153682.63
2023-05-22T19:15:25.263Z,153640.63
2023-05-22T19:17:26.781Z,153657.19
2023-05-22T19:19:28.367Z,153601.19
2023-05-22T19:21:30.116Z,153561.78
2023-05-22T19:23:31.636Z,153549.09
2023-05-22T19:25:33.085Z,153524.94
2023-05-22T19:27:36.574Z,153467.78
2023-05-22T19:29:39.577Z,153475.41
2023-05-22T19:31:41.176Z,153433.47
2023-05-22T19:33:43.289Z,153414.44
2023-05-22T19:35:45.205Z,153401.66
2023-05-22T19:37:46.675Z,153406.75
2023-05-22T19:39:48.357Z,153396.56
2023-05-22T19:41:49.959Z,153390.25
2023-05-22T19:43:51.455Z,153350.88
2023-05-22T19:45:53.463Z,153316.53
2023-05-22T19:47:55.526Z,153311.50
2023-05-22T19:49:57.020Z,153297.50
2023-05-22T19:51:58.599Z,153241.63
2023-05-22T19:54:00.139Z,153268.31
2023-05-22T19:56:01.579Z,153234.00
2023-05-22T19:58:03.507Z,153193.38
2023-05-22T20:00:05.554Z,153207.38
2023-05-22T20:02:07.372Z,153175.59
2023-05-22T20:04:09.297Z,153184.50
2023-05-22T20:06:10.763Z,153152.69
2023-05-22T20:08:12.266Z,153148.88
2023-05-22T20:10:14.365Z,153110.81
2023-05-22T20:12:15.832Z,153138.75
2023-05-22T20:14:17.276Z,153140.03
2023-05-22T20:16:19.091Z,153115.91
2023-05-22T20:18:20.595Z,153104.50
2023-05-22T20:20:22.292Z,153051.16
2023-05-22T20:22:24.297Z,153067.66
2023-05-22T20:24:25.793Z,153066.38
2023-05-22T20:26:27.263Z,153075.28
2023-05-22T20:28:29.025Z,153048.59
2023-05-22T20:30:31.063Z,153041.03
2023-05-22T20:32:32.615Z,153015.63
2023-05-22T20:34:34.775Z,152992.78
2023-05-22T20:36:36.489Z,152982.63
2023-05-22T20:38:37.946Z,152980.13
2023-05-22T20:40:39.662Z,152966.13
2023-05-22T20:42:41.410Z,152953.47
2023-05-22T20:44:42.946Z,152855.75
2023-05-22T20:46:44.741Z,152911.59
2023-05-22T20:48:46.271Z,152869.69
2023-05-22T20:50:47.715Z,152877.31
2023-05-22T20:52:49.439Z,152857.00
2023-05-22T20:54:51.269Z,152820.19
2023-05-22T20:56:52.721Z,152826.53
2023-05-22T20:58:54.763Z,152806.25
2023-05-22T21:00:56.212Z,152799.91
2023-05-22T21:02:58.500Z,152782.16
2023-05-22T21:05:00.890Z,152775.78
2023-05-22T21:07:02.350Z,152740.31
2023-05-22T21:09:03.791Z,152755.50
2023-05-22T21:11:05.648Z,152723.81
2023-05-22T21:13:07.146Z,152712.44
2023-05-22T21:15:09.205Z,152747.94
2023-05-22T21:17:11.012Z,152701.00
2023-05-22T21:19:12.499Z,152716.19
2023-05-22T21:21:14.503Z,152645.22
2023-05-22T21:23:16.140Z,152675.63
2023-05-22T21:25:17.586Z,152674.38
2023-05-22T21:27:19.054Z,152665.50
2023-05-22T21:29:20.689Z,152662.97
2023-05-22T21:31:22.147Z,152662.97
2023-05-22T21:33:23.603Z,152655.34
2023-05-22T21:35:25.320Z,152624.94
2023-05-22T21:37:26.826Z,152605.94
2023-05-22T21:39:28.268Z,152618.59
2023-05-22T21:41:29.882Z,152586.88
2023-05-22T21:43:31.317Z,152579.25
2023-05-22T21:45:32.746Z,152588.16
2023-05-22T21:47:34.810Z,152571.63
2023-05-22T21:49:38.741Z,152570.38
2023-05-22T21:51:40.959Z,152542.53
2023-05-22T21:53:42.599Z,152536.16
2023-05-22T21:55:44.053Z,152518.44
2023-05-22T21:57:45.611Z,152520.97
2023-05-22T21:59:47.327Z,152509.53
2023-05-22T22:01:48.861Z,152448.72
2023-05-22T22:03:50.421Z,152498.16
2023-05-22T22:05:52.207Z,152490.53
2023-05-22T22:07:53.859Z,152475.34
2023-05-22T22:09:55.314Z,152450.00
2023-05-22T22:11:57.142Z,152429.72
2023-05-22T22:13:58.669Z,152431.00
2023-05-22T22:16:00.166Z,152417.06
2023-05-22T22:18:02.337Z,152439.88
2023-05-22T22:20:04.697Z,152434.81
2023-05-22T22:22:06.119Z,152394.25
2023-05-22T22:24:08.177Z,152386.66
2023-05-22T22:26:09.626Z,152381.63
2023-05-22T22:28:11.069Z,152361.34
2023-05-22T22:30:12.808Z,152337.28
2023-05-22T22:32:14.354Z,152310.66
2023-05-22T22:34:16.004Z,152318.28
2023-05-22T22:36:18.065Z,152323.31
2023-05-22T22:38:19.525Z,152328.38
2023-05-22T22:40:21.009Z,152286.53
2023-05-22T22:42:22.680Z,152304.31
2023-05-22T22:44:24.112Z,152294.22
2023-05-22T22:46:25.587Z,152284.00
2023-05-22T22:48:27.410Z,152280.25
2023-05-22T22:50:28.863Z,152262.47
2023-05-22T22:52:30.291Z,152252.38
2023-05-22T22:54:32.385Z,152242.22
2023-05-22T22:56:33.838Z,152249.84
2023-05-22T22:58:35.268Z,152272.63
2023-05-22T23:00:36.913Z,152272.63
2023-05-22T23:02:38.624Z,152286.53
2023-05-22T23:04:40.174Z,152244.75
2023-05-22T23:06:42.492Z,152220.69
2023-05-22T23:08:43.917Z,152211.84
2023-05-22T23:10:45.428Z,152211.84
2023-05-22T23:12:48.439Z,152186.53
2023-05-22T23:14:49.975Z,152199.16
2023-05-22T23:16:51.419Z,152191.59
2023-05-22T23:18:53.320Z,152178.91
2023-05-22T23:20:54.848Z,152190.31